Time;durP1;ratioP1;P1;durP2;ratioP2;P2;SDS_P1;SDS_P2;PMS_P1;PMS_P2;Temp;Humidity;BMP_temperature;BMP_pressure;BME280_temperature;BME280_humidity;BME280_pressure;Samples;Min_cycle;Max_cycle;Signal;HPM_P1;HPM_P2
2022/05/03 00:01:59;;;;;;;16.33;14.00;;;14.50;74.70;;;;;;4998422;28;21180;-76
2022/05/03 00:04:36;;;;;;;16.03;13.50;;;14.40;74.70;;;;;;5000579;28;20507;-77
2022/05/03 00:07:18;;;;;;;14.63;12.57;;;14.40;75.00;;;;;;4999071;28;20592;-76
2022/05/03 00:09:57;;;;;;;14.70;12.03;;;14.40;75.10;;;;;;4997957;28;20501;-77
2022/05/03 00:12:35;;;;;;;14.83;12.57;;;14.40;75.10;;;;;;5002235;28;20467;-76
2022/05/03 00:15:05;;;;;;;13.93;12.17;;;14.50;75.30;;;;;;4999174;28;20454;-76
2022/05/03 00:17:34;;;;;;;16.33;13.20;;;14.50;75.30;;;;;;5002011;28;20457;-76
2022/05/03 00:20:04;;;;;;;15.40;12.30;;;14.50;75.30;;;;;;4997591;28;20572;-76
2022/05/03 00:22:33;;;;;;;16.60;12.93;;;14.50;75.10;;;;;;4995522;28;20482;-77
2022/05/03 00:25:03;;;;;;;15.80;13.17;;;14.50;75.10;;;;;;4999526;28;20456;-77
2022/05/03 00:27:31;;;;;;;18.00;12.57;;;14.50;75.10;;;;;;5000413;28;20979;-77
2022/05/03 00:29:59;;;;;;;15.57;12.80;;;14.50;75.10;;;;;;4993980;28;21014;-76
2022/05/03 00:32:27;;;;;;;14.97;12.67;;;14.50;75.30;;;;;;4997414;28;20737;-77
2022/05/03 00:34:57;;;;;;;12.13;10.70;;;14.50;75.40;;;;;;4999057;28;20474;-77
2022/05/03 00:37:26;;;;;;;13.50;11.90;;;14.40;75.40;;;;;;4997927;28;20457;-77
2022/05/03 00:39:54;;;;;;;13.83;11.60;;;14.40;75.50;;;;;;4996357;28;20487;-76
2022/05/03 00:42:26;;;;;;;15.53;12.70;;;14.40;75.40;;;;;;4996827;28;20460;-75
2022/05/03 00:45:04;;;;;;;14.10;12.10;;;14.40;75.50;;;;;;4996454;28;20461;-78
2022/05/03 00:47:42;;;;;;;16.10;12.60;;;14.40;75.50;;;;;;5002857;28;20830;-76
2022/05/03 00:50:19;;;;;;;14.27;12.73;;;14.30;75.60;;;;;;4999617;28;20473;-74
2022/05/03 00:52:50;;;;;;;17.43;14.53;;;14.30;75.60;;;;;;5003875;28;20477;-75
2022/05/03 00:55:30;;;;;;;14.33;11.10;;;14.30;75.70;;;;;;4997476;28;20467;-75
2022/05/03 00:58:12;;;;;;;15.73;11.97;;;14.30;75.70;;;;;;5004375;28;21061;-75
2022/05/03 01:00:47;;;;;;;15.90;12.37;;;14.30;75.70;;;;;;4992546;28;20473;-77
2022/05/03 01:03:22;;;;;;;16.97;12.50;;;14.30;75.60;;;;;;4999432;28;20463;-76
2022/05/03 01:06:17;;;;;;;15.30;13.07;;;14.30;75.60;;;;;;4995219;28;20461;-76
2022/05/03 01:09:00;;;;;;;21.63;12.87;;;14.30;75.50;;;;;;4999325;28;20516;-77
2022/05/03 01:11:35;;;;;;;13.10;11.37;;;14.20;75.60;;;;;;4997514;28;20449;-76
2022/05/03 01:14:13;;;;;;;15.40;13.73;;;14.20;75.60;;;;;;4999255;28;20559;-76
2022/05/03 01:16:53;;;;;;;17.80;13.50;;;14.20;75.60;;;;;;4996639;28;20488;-77
2022/05/03 01:19:34;;;;;;;17.20;13.57;;;14.10;75.60;;;;;;5000192;28;20484;-77
2022/05/03 01:22:09;;;;;;;16.67;14.27;;;14.10;75.60;;;;;;5000802;28;21282;-76
2022/05/03 01:25:10;;;;;;;18.60;14.50;;;14.10;75.60;;;;;;4999578;28;20467;-76
2022/05/03 01:28:01;;;;;;;17.83;12.70;;;14.00;75.70;;;;;;4991903;28;20481;-78
2022/05/03 01:30:32;;;;;;;14.53;11.77;;;14.00;75.80;;;;;;4989098;28;20472;-75
2022/05/03 01:33:07;;;;;;;15.07;12.50;;;13.90;75.70;;;;;;4997000;28;20466;-76
2022/05/03 01:35:39;;;;;;;15.13;12.57;;;13.90;75.60;;;;;;4993760;28;20461;-77
2022/05/03 01:38:18;;;;;;;19.10;13.00;;;13.90;75.60;;;;;;4996160;28;20627;-74
2022/05/03 01:41:04;;;;;;;14.80;12.67;;;13.80;75.60;;;;;;4997489;28;20455;-75
2022/05/03 01:43:53;;;;;;;13.83;12.33;;;13.80;75.50;;;;;;4995147;28;20457;-77
2022/05/03 01:46:25;;;;;;;16.47;12.03;;;13.70;75.50;;;;;;4994482;28;20484;-77
2022/05/03 01:51:57;;;;;;;17.80;12.40;;;13.60;75.40;;;;;;4999536;28;20472;-75
2022/05/03 01:54:52;;;;;;;16.63;12.30;;;13.50;75.40;;;;;;4997833;28;20456;-75
2022/05/03 01:57:27;;;;;;;13.33;11.50;;;13.50;75.50;;;;;;4996449;28;20456;-77
2022/05/03 02:00:05;;;;;;;14.80;12.17;;;13.50;75.60;;;;;;4999027;28;20720;-77
2022/05/03 02:03:03;;;;;;;16.57;12.70;;;13.50;75.60;;;;;;4999454;28;20563;-77
2022/05/03 02:05:52;;;;;;;16.27;13.10;;;13.40;75.40;;;;;;4998823;28;20452;-77
2022/05/03 02:08:22;;;;;;;14.50;11.73;;;13.40;75.40;;;;;;4998017;28;20501;-76
2022/05/03 02:11:12;;;;;;;14.13;12.00;;;13.30;75.40;;;;;;4995061;28;20464;-77
2022/05/03 02:16:50;;;;;;;12.63;10.80;;;13.30;75.40;;;;;;4997348;28;20477;-77
2022/05/03 02:19:34;;;;;;;15.53;13.20;;;13.20;75.40;;;;;;4994722;28;20563;-77
2022/05/03 02:22:17;;;;;;;18.00;12.77;;;13.20;75.30;;;;;;4993079;28;21276;-76
2022/05/03 02:24:57;;;;;;;16.67;13.50;;;13.10;75.20;;;;;;4995132;28;20460;-76
2022/05/03 02:27:27;;;;;;;16.90;13.60;;;13.10;75.30;;;;;;4994040;28;20528;-77
2022/05/03 02:29:59;;;;;;;16.33;12.17;;;13.10;75.20;;;;;;4994928;28;20569;-76
2022/05/03 02:32:34;;;;;;;15.57;11.87;;;13.10;75.20;;;;;;4994317;28;20484;-75
2022/05/03 02:35:06;;;;;;;17.33;13.27;;;13.10;75.10;;;;;;4996970;28;20445;-75
2022/05/03 02:37:37;;;;;;;18.30;14.30;;;13.00;75.10;;;;;;4992151;28;20467;-77
2022/05/03 02:40:08;;;;;;;23.00;13.07;;;13.00;74.90;;;;;;4994827;28;20480;-75
2022/05/03 02:42:37;;;;;;;15.57;12.43;;;12.90;75.00;;;;;;4997289;28;20934;-77
2022/05/03 02:45:07;;;;;;;15.30;12.47;;;12.90;75.00;;;;;;4993360;28;20466;-76
2022/05/03 02:47:40;;;;;;;14.07;12.27;;;12.80;75.00;;;;;;4998459;28;20462;-75
2022/05/03 02:50:14;;;;;;;15.33;10.90;;;12.80;74.90;;;;;;4997911;28;20575;-76
2022/05/03 02:52:49;;;;;;;15.53;12.90;;;12.80;75.00;;;;;;5004080;28;21048;-76
2022/05/03 02:55:31;;;;;;;17.73;11.70;;;12.80;74.90;;;;;;4996924;28;20456;-77
2022/05/03 02:58:06;;;;;;;12.10;10.60;;;12.70;74.90;;;;;;5000643;28;20453;-77
2022/05/03 03:03:41;;;;;;;14.00;11.37;;;12.70;74.90;;;;;;5002899;28;20476;-77
2022/05/03 03:06:20;;;;;;;11.90;9.63;;;12.60;74.90;;;;;;5015688;28;20504;-77
2022/05/03 03:08:52;;;;;;;13.40;10.93;;;12.60;74.90;;;;;;4999006;28;20488;-78
2022/05/03 03:11:31;;;;;;;12.23;9.83;;;12.60;74.80;;;;;;4999537;28;20449;-76
2022/05/03 03:14:21;;;;;;;14.17;10.80;;;12.60;74.80;;;;;;4998488;28;21269;-77
2022/05/03 03:16:55;;;;;;;16.73;10.80;;;12.60;74.80;;;;;;5015096;28;20466;-76
2022/05/03 03:20:02;;;;;;;12.47;10.30;;;12.60;74.80;;;;;;5001375;28;20723;-76
2022/05/03 03:22:36;;;;;;;11.90;10.33;;;12.60;74.70;;;;;;5000730;28;20474;-76
2022/05/03 03:25:06;;;;;;;14.23;10.30;;;12.50;74.70;;;;;;4997141;28;20460;-76
2022/05/03 03:27:35;;;;;;;11.83;10.23;;;12.50;74.70;;;;;;4997137;28;20445;-76
2022/05/03 03:30:06;;;;;;;12.07;9.87;;;12.50;74.60;;;;;;4999819;28;20476;-76
2022/05/03 03:32:39;;;;;;;15.23;11.40;;;12.40;74.60;;;;;;4998330;28;20469;-77
2022/05/03 03:35:08;;;;;;;12.93;11.30;;;12.40;74.60;;;;;;4996881;28;20477;-77
2022/05/03 03:37:37;;;;;;;13.17;10.53;;;12.40;74.60;;;;;;5003012;28;20826;-76
2022/05/03 03:40:07;;;;;;;13.60;11.13;;;12.40;74.60;;;;;;4996399;28;20474;-77
2022/05/03 03:42:35;;;;;;;13.60;12.10;;;12.40;74.60;;;;;;5005694;28;20458;-77
2022/05/03 03:45:07;;;;;;;10.60;9.50;;;12.30;74.50;;;;;;4995388;28;20818;-77
2022/05/03 03:47:37;;;;;;;13.30;10.10;;;12.30;74.50;;;;;;4994105;28;20754;-77
2022/05/03 03:50:05;;;;;;;12.00;10.40;;;12.20;74.60;;;;;;4992016;28;20498;-75
2022/05/03 03:52:36;;;;;;;12.40;10.23;;;12.20;74.60;;;;;;4997607;28;20472;-76
2022/05/03 03:55:06;;;;;;;11.90;10.67;;;12.20;74.50;;;;;;4995947;28;20469;-75
2022/05/03 03:57:36;;;;;;;16.90;12.10;;;12.20;74.60;;;;;;4994415;28;20457;-75
2022/05/03 04:00:06;;;;;;;13.53;11.13;;;12.20;74.60;;;;;;4998033;28;20565;-75
2022/05/03 04:02:41;;;;;;;14.23;11.83;;;12.20;74.60;;;;;;4998651;28;21257;-76
2022/05/03 04:05:15;;;;;;;15.10;12.70;;;12.20;74.70;;;;;;4998052;28;20471;-76
2022/05/03 04:07:43;;;;;;;14.93;12.00;;;12.20;74.70;;;;;;4997239;28;20939;-75
2022/05/03 04:10:13;;;;;;;19.43;13.30;;;12.20;74.70;;;;;;4996547;28;20493;-76
2022/05/03 04:12:42;;;;;;;15.47;11.90;;;12.20;74.70;;;;;;4994644;28;20951;-77
2022/05/03 04:15:10;;;;;;;13.27;11.20;;;12.20;74.80;;;;;;4994424;28;20461;-76
2022/05/03 04:17:42;;;;;;;14.00;11.67;;;12.20;74.80;;;;;;4997609;28;20593;-76
2022/05/03 04:20:12;;;;;;;14.73;12.20;;;12.20;74.90;;;;;;4996923;28;21085;-76
2022/05/03 04:22:40;;;;;;;13.63;11.57;;;12.20;74.90;;;;;;4998181;28;20454;-77
2022/05/03 04:25:09;;;;;;;15.00;11.90;;;12.20;74.90;;;;;;4998459;28;20468;-77
2022/05/03 04:27:39;;;;;;;19.40;12.40;;;12.20;74.80;;;;;;4997915;28;20449;-76
2022/05/03 04:30:08;;;;;;;15.10;11.30;;;12.20;74.70;;;;;;4994587;28;20487;-76
2022/05/03 04:32:36;;;;;;;14.80;11.73;;;12.10;74.70;;;;;;4996622;28;20942;-76
2022/05/03 04:35:04;;;;;;;16.03;12.10;;;12.20;74.80;;;;;;4994887;28;20458;-75
2022/05/03 04:37:33;;;;;;;13.87;11.23;;;12.20;74.80;;;;;;4996772;28;20548;-75
2022/05/03 04:40:01;;;;;;;18.00;12.13;;;12.20;74.80;;;;;;4996896;28;20469;-77
2022/05/03 04:42:28;;;;;;;15.73;11.70;;;12.20;74.80;;;;;;5000225;28;20464;-77
2022/05/03 04:44:58;;;;;;;12.87;11.47;;;12.20;74.90;;;;;;4998567;28;20809;-76
2022/05/03 04:47:26;;;;;;;14.63;12.13;;;12.30;74.90;;;;;;4994916;28;22505;-76
2022/05/03 04:49:54;;;;;;;14.07;12.30;;;12.30;75.10;;;;;;4997823;28;20493;-75
2022/05/03 04:52:22;;;;;;;17.03;12.80;;;12.40;75.20;;;;;;4992220;28;20549;-76
2022/05/03 04:54:50;;;;;;;15.10;13.50;;;12.50;75.20;;;;;;4992703;28;20468;-76
2022/05/03 04:57:18;;;;;;;14.70;11.80;;;12.60;75.20;;;;;;4993373;28;21337;-76
2022/05/03 04:59:46;;;;;;;13.90;10.67;;;12.70;75.00;;;;;;4992533;28;20484;-75
2022/05/03 05:02:15;;;;;;;15.00;10.83;;;12.70;74.80;;;;;;4996122;28;20478;-76
2022/05/03 05:04:44;;;;;;;13.40;11.47;;;12.70;74.70;;;;;;4994976;28;20860;-75
2022/05/03 05:07:12;;;;;;;16.10;12.50;;;12.70;75.30;;;;;;4997065;28;20454;-75
2022/05/03 05:10:23;;;;;;;14.57;12.50;;;13.00;76.30;;;;;;4995982;28;20496;-76
2022/05/03 05:12:30;;;;;;;14.23;12.77;;;13.60;76.00;;;;;;4997528;28;20461;-76
2022/05/03 05:14:58;;;;;;;14.30;11.87;;;14.30;75.30;;;;;;4997080;28;20508;-75
2022/05/03 05:17:27;;;;;;;16.90;13.07;;;15.10;74.30;;;;;;5005308;28;21013;-75
2022/05/03 05:19:55;;;;;;;18.60;12.13;;;15.80;72.90;;;;;;5006548;28;20479;-76
2022/05/03 05:22:23;;;;;;;17.30;12.77;;;16.60;71.90;;;;;;5007051;28;20460;-76
2022/05/03 05:24:52;;;;;;;14.13;12.20;;;17.20;70.80;;;;;;4999274;28;20991;-77
2022/05/03 05:27:20;;;;;;;13.30;11.67;;;17.90;69.80;;;;;;5007213;28;20461;-76
2022/05/03 05:29:47;;;;;;;14.90;13.30;;;18.40;69.00;;;;;;5002430;28;20542;-76
2022/05/03 05:32:16;;;;;;;16.07;12.77;;;18.90;68.40;;;;;;5004035;28;20522;-77
2022/05/03 05:34:45;;;;;;;13.57;11.20;;;19.40;68.00;;;;;;5008192;28;20457;-75
2022/05/03 05:37:14;;;;;;;13.53;11.87;;;19.90;67.20;;;;;;5001494;28;20445;-77
2022/05/03 05:39:41;;;;;;;15.50;12.20;;;20.40;66.60;;;;;;5003926;28;20481;-77
2022/05/03 05:42:11;;;;;;;15.40;12.57;;;20.90;65.90;;;;;;5009248;28;20492;-76
2022/05/03 05:44:39;;;;;;;14.23;12.63;;;21.30;65.10;;;;;;5004506;28;20523;-76
2022/05/03 05:47:07;;;;;;;23.70;16.60;;;21.80;64.50;;;;;;5000198;28;21033;-77
2022/05/03 05:49:36;;;;;;;13.80;12.03;;;22.30;63.60;;;;;;5005145;28;20528;-79
2022/05/03 05:54:51;;;;;;;13.53;10.70;;;23.30;61.90;;;;;;5006532;28;20453;-76
2022/05/03 05:57:19;;;;;;;13.40;11.73;;;23.80;60.70;;;;;;5008146;28;20464;-78
2022/05/03 05:59:47;;;;;;;15.47;12.63;;;23.80;59.00;;;;;;5004088;28;20480;-76
2022/05/03 06:02:15;;;;;;;16.50;12.47;;;22.90;57.90;;;;;;5005816;28;20468;-76
2022/05/03 06:04:44;;;;;;;19.10;12.30;;;21.60;58.10;;;;;;5010798;28;20828;-77
2022/05/03 06:07:13;;;;;;;14.37;12.87;;;20.40;59.00;;;;;;5008413;28;20507;-77
2022/05/03 06:09:41;;;;;;;15.47;12.17;;;19.30;60.00;;;;;;5006616;28;20492;-78
2022/05/03 06:12:10;;;;;;;14.90;12.70;;;18.40;61.10;;;;;;5004852;28;20479;-77
2022/05/03 06:14:38;;;;;;;14.20;12.53;;;17.60;62.10;;;;;;5008379;28;20865;-76
2022/05/03 06:17:06;;;;;;;18.27;13.57;;;17.00;62.90;;;;;;5004881;28;20476;-76
2022/05/03 06:19:33;;;;;;;16.33;14.63;;;16.60;63.80;;;;;;4998210;28;20543;-76
2022/05/03 06:22:01;;;;;;;16.20;14.50;;;16.20;64.60;;;;;;5011727;28;20445;-76
2022/05/03 06:24:31;;;;;;;17.63;13.57;;;15.90;65.30;;;;;;5011190;28;20488;-77
2022/05/03 06:26:59;;;;;;;18.07;13.63;;;15.70;66.10;;;;;;5007549;28;20453;-75
2022/05/03 06:29:27;;;;;;;19.47;15.57;;;15.50;66.60;;;;;;5010857;28;20480;-76
2022/05/03 06:31:55;;;;;;;18.83;13.93;;;15.40;67.10;;;;;;5002256;28;20484;-76
2022/05/03 06:34:23;;;;;;;18.77;13.43;;;15.30;67.40;;;;;;5003962;28;20468;-78
2022/05/03 06:36:51;;;;;;;16.97;14.03;;;15.20;67.80;;;;;;5003746;28;20461;-77
2022/05/03 06:39:18;;;;;;;15.13;12.87;;;15.20;68.20;;;;;;5011259;28;20472;-78
2022/05/03 06:41:48;;;;;;;18.03;13.60;;;15.10;68.50;;;;;;5007084;28;20452;-78
2022/05/03 06:44:16;;;;;;;15.53;13.60;;;15.10;68.80;;;;;;5010712;28;20453;-78
2022/05/03 06:46:44;;;;;;;53.90;38.17;;;15.10;69.10;;;;;;5006410;28;20511;-76
2022/05/03 06:49:12;;;;;;;55.63;39.90;;;15.20;69.20;;;;;;5005925;28;21026;-79
2022/05/03 06:51:40;;;;;;;44.20;31.33;;;15.20;69.40;;;;;;5005005;28;20465;-78
2022/05/03 06:54:08;;;;;;;30.63;21.83;;;15.20;69.70;;;;;;5003657;28;20485;-78
2022/05/03 06:56:36;;;;;;;23.77;16.47;;;15.30;69.80;;;;;;5005754;28;20461;-76
2022/05/03 06:59:07;;;;;;;23.20;16.40;;;15.30;69.90;;;;;;5002412;28;20526;-76
2022/05/03 07:01:35;;;;;;;16.80;13.33;;;15.30;70.00;;;;;;5005451;28;20484;-78
2022/05/03 07:04:03;;;;;;;24.57;15.50;;;15.40;70.00;;;;;;5005013;28;20474;-75
2022/05/03 07:06:31;;;;;;;17.77;12.73;;;15.40;70.10;;;;;;5002625;28;20449;-76
2022/05/03 07:08:59;;;;;;;15.87;12.87;;;15.50;70.20;;;;;;5000239;28;20576;-76
2022/05/03 07:11:27;;;;;;;13.73;11.50;;;15.50;70.40;;;;;;5003236;28;20571;-77
2022/05/03 07:13:56;;;;;;;17.90;12.83;;;15.60;70.40;;;;;;5001756;28;20866;-77
2022/05/03 07:16:26;;;;;;;15.30;12.00;;;15.60;70.30;;;;;;4997683;28;20481;-77
2022/05/03 07:24:25;;;;;;;16.83;13.27;;;15.70;70.70;;;;;;5002738;28;20464;-76
2022/05/03 07:26:56;;;;;;;14.87;12.63;;;15.80;70.90;;;;;;5004971;28;20464;-77
2022/05/03 07:29:23;;;;;;;16.30;12.20;;;15.80;71.00;;;;;;5005879;28;20481;-76
2022/05/03 07:31:53;;;;;;;14.43;12.87;;;15.80;71.10;;;;;;5001572;28;20485;-75
2022/05/03 07:34:21;;;;;;;14.23;12.00;;;15.80;71.30;;;;;;5005603;28;20467;-75
2022/05/03 07:36:49;;;;;;;17.53;13.13;;;15.80;71.30;;;;;;5005559;28;20448;-75
2022/05/03 07:39:16;;;;;;;14.80;11.40;;;15.70;71.40;;;;;;5001197;28;20488;-75
2022/05/03 07:41:44;;;;;;;13.23;11.07;;;15.70;71.40;;;;;;5000026;28;20458;-76
2022/05/03 07:44:12;;;;;;;14.93;10.80;;;15.70;71.50;;;;;;5002785;28;20461;-74
2022/05/03 07:46:40;;;;;;;14.80;11.87;;;15.70;71.50;;;;;;5005662;28;21183;-75
2022/05/03 07:49:10;;;;;;;13.77;11.53;;;15.70;71.60;;;;;;5007175;28;21014;-76
2022/05/03 07:51:40;;;;;;;13.43;10.27;;;15.80;71.60;;;;;;5009089;28;20485;-75
2022/05/03 07:54:08;;;;;;;17.57;10.80;;;15.80;71.60;;;;;;5004918;28;20451;-75
2022/05/03 07:56:36;;;;;;;13.40;10.50;;;15.80;71.50;;;;;;5000698;28;20541;-76
2022/05/03 07:59:10;;;;;;;12.70;11.00;;;15.80;71.60;;;;;;5001179;28;20489;-76
2022/05/03 08:01:40;;;;;;;16.33;11.47;;;15.80;71.70;;;;;;5002903;28;20483;-78
2022/05/03 08:04:09;;;;;;;17.63;12.43;;;15.80;71.80;;;;;;5007228;28;20453;-77
2022/05/03 08:06:37;;;;;;;22.80;11.33;;;15.90;71.80;;;;;;5008642;28;20455;-78
2022/05/03 08:09:05;;;;;;;13.70;11.40;;;15.90;71.80;;;;;;4999868;28;20470;-77
2022/05/03 08:11:38;;;;;;;13.90;11.47;;;16.00;71.80;;;;;;5001995;28;20461;-75
2022/05/03 08:14:06;;;;;;;17.53;11.03;;;16.00;71.80;;;;;;5004769;28;20460;-75
2022/05/03 08:16:34;;;;;;;13.50;11.20;;;16.10;71.90;;;;;;5004608;28;20483;-75
2022/05/03 08:19:02;;;;;;;15.83;11.97;;;16.10;71.90;;;;;;5017275;28;20497;-76
2022/05/03 08:21:32;;;;;;;17.60;11.90;;;16.20;72.00;;;;;;5003269;28;20885;-75
2022/05/03 08:24:01;;;;;;;25.00;11.77;;;16.30;71.90;;;;;;4998896;28;20476;-76
2022/05/03 08:26:29;;;;;;;14.20;10.60;;;16.30;71.80;;;;;;5009296;28;20453;-76
2022/05/03 08:28:57;;;;;;;14.40;11.20;;;16.40;71.90;;;;;;5006565;28;21188;-75
2022/05/03 08:31:25;;;;;;;18.90;11.10;;;16.50;71.90;;;;;;5001846;28;20488;-75
2022/05/03 08:33:53;;;;;;;15.63;11.00;;;16.50;71.90;;;;;;4996715;28;20458;-76
2022/05/03 08:36:21;;;;;;;14.60;9.50;;;16.60;71.80;;;;;;4999816;28;20469;-75
2022/05/03 08:44:21;;;;;;;17.10;10.57;;;16.80;71.60;;;;;;4998575;28;20468;-77
2022/05/03 08:46:51;;;;;;;11.20;8.70;;;16.80;71.60;;;;;;5001557;28;20818;-77
2022/05/03 08:49:21;;;;;;;11.60;7.10;;;16.90;71.50;;;;;;5002274;28;21173;-76
2022/05/03 08:51:51;;;;;;;13.33;8.47;;;16.90;71.30;;;;;;5005111;28;20476;-76
2022/05/03 08:54:21;;;;;;;14.40;9.43;;;17.00;70.90;;;;;;5004963;28;20473;-77
2022/05/03 08:56:49;;;;;;;14.13;8.53;;;17.00;70.80;;;;;;4997319;28;20540;-78
2022/05/03 08:59:17;;;;;;;12.10;8.73;;;17.10;70.70;;;;;;4999374;28;20481;-78
2022/05/03 09:01:45;;;;;;;13.80;8.33;;;17.10;70.70;;;;;;4997602;28;20484;-76
2022/05/03 09:04:13;;;;;;;12.83;9.00;;;17.20;70.60;;;;;;5002481;28;20914;-78
2022/05/03 09:06:42;;;;;;;12.60;9.60;;;17.20;70.50;;;;;;5000853;28;20449;-77
2022/05/03 09:09:12;;;;;;;13.93;9.73;;;17.30;70.40;;;;;;4996611;28;20481;-76
2022/05/03 09:11:46;;;;;;;12.50;9.57;;;17.30;70.40;;;;;;5009957;28;20488;-77
2022/05/03 09:14:15;;;;;;;12.57;8.87;;;17.30;70.50;;;;;;5002599;28;21172;-76
2022/05/03 09:16:50;;;;;;;13.73;8.43;;;17.30;70.40;;;;;;5006548;28;21034;-76
2022/05/03 09:19:25;;;;;;;18.23;10.60;;;17.30;70.30;;;;;;5000220;28;21458;-77
2022/05/03 09:24:55;;;;;;;11.60;8.43;;;17.40;70.30;;;;;;4996148;28;20476;-75
2022/05/03 09:27:26;;;;;;;16.13;8.87;;;17.40;70.10;;;;;;5004944;28;21074;-76
2022/05/03 09:30:04;;;;;;;11.07;8.13;;;17.40;70.10;;;;;;5002367;28;20481;-77
2022/05/03 09:32:41;;;;;;;12.13;7.67;;;17.50;70.00;;;;;;4975139;28;20489;-76
2022/05/03 09:35:36;;;;;;;11.40;8.20;;;17.50;70.00;;;;;;4975275;28;20887;-77
2022/05/03 09:38:05;;;;;;;11.93;8.00;;;17.60;70.00;;;;;;4973123;28;20453;-75
2022/05/03 09:40:36;;;;;;;10.10;7.13;;;17.60;69.80;;;;;;4971673;28;20461;-78
2022/05/03 09:43:06;;;;;;;9.00;6.13;;;17.60;69.60;;;;;;4981461;28;21038;-76
2022/05/03 09:45:34;;;;;;;8.27;6.30;;;17.60;69.10;;;;;;4976027;28;20450;-76
2022/05/03 09:48:03;;;;;;;8.33;6.30;;;17.60;69.10;;;;;;5007831;28;20477;-76
2022/05/03 09:50:43;;;;;;;8.37;5.30;;;17.70;69.10;;;;;;5005590;28;20962;-76
2022/05/03 09:53:17;;;;;;;9.53;6.33;;;17.80;69.10;;;;;;4997608;28;20484;-78
2022/05/03 09:55:48;;;;;;;10.70;7.40;;;17.80;69.10;;;;;;4997802;28;20876;-77
2022/05/03 09:58:19;;;;;;;11.30;7.67;;;17.90;69.10;;;;;;5007904;28;20486;-76
2022/05/03 10:00:48;;;;;;;9.17;6.33;;;18.00;68.90;;;;;;5001324;28;20994;-75
2022/05/03 10:03:18;;;;;;;8.20;5.60;;;18.10;68.80;;;;;;5004990;28;21036;-76
2022/05/03 10:05:46;;;;;;;10.00;5.80;;;18.10;68.60;;;;;;5005049;28;20453;-76
2022/05/03 10:08:16;;;;;;;9.37;5.67;;;18.20;68.30;;;;;;5004124;28;20449;-75
2022/05/03 10:10:56;;;;;;;9.80;5.70;;;18.20;68.10;;;;;;5009448;28;20966;-76
2022/05/03 10:13:26;;;;;;;7.00;5.20;;;18.20;67.70;;;;;;5002911;28;20531;-77
2022/05/03 10:21:36;;;;;;;10.83;4.60;;;18.30;67.00;;;;;;5001740;28;20489;-76
2022/05/03 10:24:06;;;;;;;9.20;6.30;;;18.40;66.40;;;;;;5003157;28;20471;-76
2022/05/03 10:27:01;;;;;;;7.60;5.40;;;18.40;66.70;;;;;;5010631;28;20457;-76
2022/05/03 10:29:33;;;;;;;8.37;5.30;;;18.60;65.20;;;;;;5003532;28;20826;-78
2022/05/03 10:32:03;;;;;;;8.60;5.70;;;18.70;65.60;;;;;;5006160;28;20472;-77
2022/05/03 10:34:56;;;;;;;8.53;5.60;;;18.80;65.20;;;;;;5006363;28;20861;-77
2022/05/03 10:38:01;;;;;;;8.67;6.07;;;18.80;64.40;;;;;;5000751;28;20448;-75
2022/05/03 10:40:31;;;;;;;10.13;6.17;;;18.90;64.60;;;;;;5000751;28;20978;-76
2022/05/03 10:43:06;;;;;;;15.53;6.77;;;18.90;64.00;;;;;;5000611;28;20986;-78
2022/05/03 10:45:51;;;;;;;11.27;6.70;;;19.00;63.40;;;;;;4999539;28;20472;-79
2022/05/03 10:48:25;;;;;;;8.53;5.87;;;19.00;63.10;;;;;;5001268;28;21033;-76
2022/05/03 10:50:54;;;;;;;9.07;6.43;;;19.10;62.90;;;;;;5000292;28;20456;-76
2022/05/03 10:53:28;;;;;;;8.87;6.20;;;19.10;62.60;;;;;;5006468;28;20491;-77
2022/05/03 10:56:18;;;;;;;12.03;7.47;;;19.10;62.60;;;;;;5000778;28;20824;-76
2022/05/03 10:59:15;;;;;;;8.90;6.63;;;19.20;62.10;;;;;;4995453;28;20485;-78
2022/05/03 11:02:10;;;;;;;10.13;6.70;;;19.30;62.00;;;;;;4998287;28;20499;-77
2022/05/03 11:05:14;;;;;;;9.10;6.90;;;19.40;61.40;;;;;;5004912;28;20459;-76
2022/05/03 11:08:02;;;;;;;12.40;7.10;;;19.40;61.50;;;;;;5000016;28;20461;-76
2022/05/03 11:10:40;;;;;;;10.20;6.37;;;19.40;61.30;;;;;;5001937;28;20456;-76
2022/05/03 11:13:38;;;;;;;8.57;6.23;;;19.50;61.30;;;;;;5004873;28;20488;-77
2022/05/03 11:16:26;;;;;;;9.00;6.43;;;19.50;61.00;;;;;;5000884;28;20485;-77
2022/05/03 11:18:56;;;;;;;11.83;6.10;;;19.60;60.70;;;;;;4997814;28;20569;-75
2022/05/03 11:21:23;;;;;;;10.70;6.30;;;19.70;60.60;;;;;;5000488;28;20466;-76
2022/05/03 11:23:52;;;;;;;8.73;6.60;;;19.70;60.00;;;;;;5004739;28;20446;-77
2022/05/03 11:26:21;;;;;;;10.37;6.27;;;19.70;59.80;;;;;;5001663;28;20849;-76
2022/05/03 11:28:50;;;;;;;11.03;6.40;;;19.80;59.20;;;;;;5000722;28;20477;-76
2022/05/03 11:31:20;;;;;;;10.33;7.07;;;19.80;58.90;;;;;;5003878;28;20465;-75
2022/05/03 11:33:50;;;;;;;9.70;7.53;;;19.90;58.60;;;;;;5002043;28;20485;-75
2022/05/03 11:36:20;;;;;;;12.43;6.67;;;19.90;58.80;;;;;;5002962;28;20525;-77
2022/05/03 11:38:49;;;;;;;10.07;6.20;;;19.90;58.70;;;;;;4997450;28;20474;-76
2022/05/03 11:41:21;;;;;;;8.70;5.77;;;19.90;58.40;;;;;;5002025;28;20987;-76
2022/05/03 11:43:49;;;;;;;9.63;6.50;;;19.90;58.30;;;;;;5001586;28;20450;-76
2022/05/03 11:46:18;;;;;;;10.53;6.60;;;20.00;57.80;;;;;;5001832;28;20470;-78
2022/05/03 11:48:50;;;;;;;12.53;6.40;;;20.00;58.00;;;;;;5002163;28;20580;-77
2022/05/03 11:57:07;;;;;;;9.80;5.87;;;20.10;56.20;;;;;;5001979;28;20450;-75
2022/05/03 11:59:35;;;;;;;8.90;5.73;;;20.20;56.30;;;;;;4996940;28;20502;-75
2022/05/03 12:02:18;;;;;;;11.27;6.60;;;20.20;56.50;;;;;;4999967;28;20482;-75
2022/05/03 12:05:16;;;;;;;8.17;6.03;;;20.30;56.40;;;;;;5017016;28;20449;-75
2022/05/03 12:07:47;;;;;;;9.63;6.53;;;20.30;55.90;;;;;;5003061;28;20500;-74
2022/05/03 12:10:20;;;;;;;9.80;6.00;;;20.40;56.00;;;;;;4996582;28;20492;-76
2022/05/03 12:13:03;;;;;;;11.43;6.13;;;20.40;55.60;;;;;;5003250;28;21014;-75
2022/05/03 12:15:31;;;;;;;8.50;6.40;;;20.40;55.70;;;;;;5001715;28;20476;-78
2022/05/03 12:18:02;;;;;;;8.10;6.13;;;20.40;55.50;;;;;;4999772;28;20447;-78
2022/05/03 12:20:42;;;;;;;14.37;6.47;;;20.40;55.30;;;;;;5002386;28;20453;-77
2022/05/03 12:23:18;;;;;;;10.70;6.13;;;20.40;55.20;;;;;;5001412;28;20797;-76
2022/05/03 12:25:48;;;;;;;13.13;6.00;;;20.40;55.40;;;;;;4997368;28;20490;-77
2022/05/03 12:28:16;;;;;;;9.47;5.70;;;20.40;55.10;;;;;;4997970;28;20472;-78
2022/05/03 12:30:45;;;;;;;11.77;5.90;;;20.40;54.30;;;;;;4998413;28;20494;-76
2022/05/03 12:33:15;;;;;;;7.40;5.70;;;20.40;54.60;;;;;;4998125;28;20471;-76
2022/05/03 12:35:44;;;;;;;8.80;5.57;;;20.40;54.40;;;;;;5001009;28;20554;-77
2022/05/03 12:38:15;;;;;;;12.07;6.83;;;20.40;53.70;;;;;;5004674;28;20471;-78
2022/05/03 12:41:24;;;;;;;10.17;5.63;;;20.40;53.90;;;;;;5196987;27;20551;-78
2022/05/03 12:44:03;;;;;;;6.73;4.40;;;20.50;53.60;;;;;;5178661;27;20451;-77
2022/05/03 12:46:33;;;;;;;7.33;4.37;;;20.50;52.80;;;;;;5135861;27;20524;-75
2022/05/03 12:49:04;;;;;;;9.87;6.03;;;20.50;53.00;;;;;;5112837;28;20494;-76
2022/05/03 12:51:32;;;;;;;9.20;6.03;;;20.60;53.20;;;;;;5104962;28;20468;-75
2022/05/03 12:54:03;;;;;;;7.60;5.40;;;20.60;53.20;;;;;;5105066;28;20456;-77
2022/05/03 12:59:21;;;;;;;7.40;5.30;;;20.50;53.00;;;;;;5102127;28;20488;-76
2022/05/03 13:01:51;;;;;;;8.03;4.90;;;20.60;52.90;;;;;;5118042;27;20485;-77
2022/05/03 13:04:20;;;;;;;7.10;5.33;;;20.60;53.00;;;;;;5126676;27;20448;-76
2022/05/03 13:06:50;;;;;;;9.67;4.97;;;20.70;52.80;;;;;;5125157;27;20448;-76
2022/05/03 13:09:17;;;;;;;8.93;5.83;;;20.80;52.70;;;;;;5124833;27;20468;-77
2022/05/03 13:11:47;;;;;;;7.30;5.47;;;20.80;52.70;;;;;;5122569;27;20447;-78
2022/05/03 13:14:16;;;;;;;10.10;4.97;;;20.80;52.70;;;;;;5125208;27;20449;-77
2022/05/03 13:16:45;;;;;;;7.17;5.40;;;20.90;52.80;;;;;;5111052;28;20836;-77
2022/05/03 13:19:13;;;;;;;8.00;5.63;;;21.00;52.60;;;;;;5100927;28;21353;-77
2022/05/03 13:21:42;;;;;;;7.70;4.23;;;21.00;52.30;;;;;;5098083;28;20456;-75
2022/05/03 13:24:12;;;;;;;8.63;5.10;;;20.90;52.20;;;;;;5101142;28;20461;-77
2022/05/03 13:26:41;;;;;;;11.23;5.17;;;21.00;52.30;;;;;;5101307;28;20450;-77
2022/05/03 13:29:12;;;;;;;8.93;4.90;;;21.00;52.30;;;;;;5101468;28;20466;-78
2022/05/03 13:31:40;;;;;;;7.77;4.80;;;21.00;51.70;;;;;;5118263;27;21280;-76
2022/05/03 13:34:09;;;;;;;8.20;5.10;;;21.00;51.60;;;;;;5122721;27;20446;-75
2022/05/03 13:42:11;;;;;;;6.90;4.70;;;21.20;51.10;;;;;;5100858;27;20466;-75
2022/05/03 13:44:41;;;;;;;10.40;6.07;;;21.20;51.20;;;;;;5124933;27;20454;-77
2022/05/03 13:47:09;;;;;;;9.20;5.77;;;21.20;51.20;;;;;;5123756;27;20476;-76